EastWest Aircraft Sales has several offices across the USA. See map for information on the nearest airstrips.

Naples Municipal Airport

Available data for KAPF from the past 2 hours
NAPLES MUNICIPAL, FL
Metar
KAPF 170053Z 10006KT 10SM CLR 24/22 A3002 RMK AO2 SLP165 T02440222

00:53 UTC

Wind: 100° 6kt

Visibility: 10 SM

Sky:

Temp: 24 deg C / 75.2 deg F

Dewpoint: 22 deg C / 71.6 deg F

Pressure: 30.02 inHg

TAF
KAPF 162339Z 1700/1724 09008KT P6SM BKN250 FM171400 15010KT P6SM SHRA SCT020 BKN060

Hillsboro Airport

Available data for KHIO from the past 2 hours
HILLSBORO/PORTLD, OR
Metar
KHIO 170053Z 29013G18KT 10SM CLR 24/12 A3000 RMK AO2 SLP157 T02440122

00:53 UTC

Wind: 290° 13kt

Visibility: 10 SM

Sky:

Temp: 24 deg C / 75.2 deg F

Dewpoint: 12 deg C / 53.6 deg F

Pressure: 30 inHg

TAF
KHIO 162335Z 1700/1724 33013KT P6SM BKN250 FM170700 30006KT P6SM OVC050 FM171300 00000KT P6SM OVC015 FM172100 35005KT P6SM BKN250 FM172200 35012KT P6SM BKN050